Time;durP1;ratioP1;P1;durP2;ratioP2;P2;SDS_P1;SDS_P2;PMS_P1;PMS_P2;Temp;Humidity;BMP_temperature;BMP_pressure;BME280_temperature;BME280_humidity;BME280_pressure;Samples;Min_cycle;Max_cycle;Signal;HPM_P1;HPM_P2
2022/12/19 00:00:26;;;;;;;27.17;16.13;;;1.50;99.90;;;;;;4960557;28;20177;-73
2022/12/19 00:02:56;;;;;;;29.00;17.15;;;1.50;99.90;;;;;;4960429;28;20287;-73
2022/12/19 00:05:22;;;;;;;30.55;16.30;;;1.50;99.90;;;;;;4995007;28;20173;-73
2022/12/19 00:07:48;;;;;;;29.60;16.40;;;1.50;99.90;;;;;;4977220;28;20201;-74
2022/12/19 00:10:14;;;;;;;26.50;16.00;;;1.50;99.90;;;;;;4976643;28;21036;-74
2022/12/19 00:12:42;;;;;;;26.97;16.20;;;1.50;99.90;;;;;;4961802;28;20300;-73
2022/12/19 00:15:11;;;;;;;27.42;15.02;;;1.50;99.90;;;;;;4977721;28;20421;-73
2022/12/19 00:17:37;;;;;;;27.35;16.17;;;1.50;99.90;;;;;;4977822;28;20213;-73
2022/12/19 00:20:03;;;;;;;31.07;17.87;;;1.60;99.90;;;;;;4977111;28;20667;-73
2022/12/19 00:22:29;;;;;;;28.08;16.25;;;1.60;99.90;;;;;;4993228;28;20926;-73
2022/12/19 00:24:55;;;;;;;29.27;16.27;;;1.60;99.90;;;;;;4993685;28;20544;-73
2022/12/19 00:27:21;;;;;;;32.47;16.35;;;1.60;99.90;;;;;;4976987;28;20181;-73
2022/12/19 00:29:47;;;;;;;30.60;15.77;;;1.60;99.90;;;;;;4977063;28;20244;-73
2022/12/19 00:32:14;;;;;;;27.58;15.93;;;1.60;99.90;;;;;;4994225;28;20502;-73
2022/12/19 00:34:44;;;;;;;29.73;16.27;;;1.60;99.90;;;;;;4961351;28;20189;-74
2022/12/19 00:37:10;;;;;;;30.80;17.00;;;1.60;99.90;;;;;;4992947;28;20636;-73
2022/12/19 00:39:36;;;;;;;27.77;16.40;;;1.60;99.90;;;;;;4994030;28;20174;-73
2022/12/19 00:42:02;;;;;;;31.17;16.50;;;1.60;99.90;;;;;;4976270;28;20209;-73
2022/12/19 00:44:30;;;;;;;27.63;16.38;;;1.60;99.90;;;;;;4994572;28;20492;-73
2022/12/19 00:46:57;;;;;;;29.83;15.50;;;1.60;99.90;;;;;;4994023;28;20178;-74
2022/12/19 00:49:24;;;;;;;27.83;16.20;;;1.60;99.90;;;;;;4960684;28;20619;-73
2022/12/19 00:51:53;;;;;;;27.60;16.52;;;1.60;99.90;;;;;;4976290;28;20194;-73
2022/12/19 00:54:21;;;;;;;28.42;16.17;;;1.60;99.90;;;;;;4960876;28;20514;-74
2022/12/19 00:56:50;;;;;;;31.80;16.73;;;1.60;99.90;;;;;;4992258;28;20196;-73
2022/12/19 00:59:18;;;;;;;26.70;15.88;;;1.60;99.90;;;;;;4976896;28;20174;-73
2022/12/19 01:01:50;;;;;;;26.70;14.68;;;1.60;99.90;;;;;;4945466;28;20217;-74
2022/12/19 01:04:16;;;;;;;29.77;16.35;;;1.60;99.90;;;;;;4944658;28;20173;-74
2022/12/19 01:06:44;;;;;;;30.58;16.77;;;1.60;99.90;;;;;;4976068;28;20202;-73
2022/12/19 01:09:11;;;;;;;27.95;16.35;;;1.60;99.90;;;;;;4957278;28;20240;-73
2022/12/19 01:14:28;;;;;;;27.83;15.80;;;1.70;99.90;;;;;;4993311;28;20293;-73
2022/12/19 01:16:54;;;;;;;30.27;17.58;;;1.70;99.90;;;;;;4973054;28;20240;-73
2022/12/19 01:19:20;;;;;;;30.77;17.77;;;1.70;99.90;;;;;;4974305;28;20176;-73
2022/12/19 01:21:46;;;;;;;32.35;15.57;;;1.70;99.90;;;;;;4990120;28;20451;-73
2022/12/19 01:24:12;;;;;;;25.30;15.45;;;1.70;99.90;;;;;;4992822;28;20236;-74
2022/12/19 01:26:41;;;;;;;31.55;15.90;;;1.70;99.90;;;;;;4976394;28;20678;-74
2022/12/19 01:29:07;;;;;;;32.77;16.47;;;1.70;99.90;;;;;;4975961;28;20194;-73
2022/12/19 01:31:33;;;;;;;26.00;15.73;;;1.70;99.90;;;;;;4958926;28;20540;-74
2022/12/19 01:34:04;;;;;;;28.42;16.38;;;1.70;99.90;;;;;;4975506;28;20256;-73
2022/12/19 01:36:34;;;;;;;29.42;16.65;;;1.70;99.90;;;;;;4976055;28;20656;-74
2022/12/19 01:39:03;;;;;;;28.35;16.50;;;1.80;99.90;;;;;;4975862;28;20185;-73
2022/12/19 01:41:29;;;;;;;25.38;16.13;;;1.80;99.90;;;;;;4959400;28;20213;-74
2022/12/19 01:44:01;;;;;;;27.27;14.63;;;1.80;99.90;;;;;;4959905;28;20194;-73
2022/12/19 01:46:51;;;;;;;31.55;16.23;;;1.80;99.90;;;;;;4959354;28;21733;-73
2022/12/19 01:49:31;;;;;;;31.65;14.68;;;1.70;99.90;;;;;;4976856;28;20693;-73
2022/12/19 01:52:06;;;;;;;26.52;14.40;;;1.80;99.90;;;;;;4992548;28;20633;-74
2022/12/19 01:54:39;;;;;;;23.63;14.55;;;1.80;99.90;;;;;;4959607;28;20229;-73
2022/12/19 01:57:11;;;;;;;24.38;15.65;;;1.80;99.90;;;;;;4975802;28;20267;-73
2022/12/19 01:59:42;;;;;;;25.35;16.13;;;1.80;99.90;;;;;;4990839;28;20237;-73
2022/12/19 02:02:34;;;;;;;28.23;16.35;;;1.80;99.90;;;;;;4975403;28;20699;-73
2022/12/19 02:05:06;;;;;;;29.63;16.05;;;1.80;99.90;;;;;;4975535;28;20288;-73
2022/12/19 02:07:33;;;;;;;30.73;14.88;;;1.80;99.90;;;;;;4975270;28;20857;-73
2022/12/19 02:10:05;;;;;;;29.80;15.95;;;1.80;99.90;;;;;;4974806;28;20228;-73
2022/12/19 02:12:38;;;;;;;28.35;14.82;;;1.80;99.90;;;;;;4959539;28;20281;-73
2022/12/19 02:15:07;;;;;;;29.83;16.35;;;1.80;99.90;;;;;;4975371;28;20174;-73
2022/12/19 02:17:48;;;;;;;30.92;16.63;;;1.80;99.90;;;;;;4992643;28;20178;-73
2022/12/19 02:20:36;;;;;;;29.35;16.17;;;1.80;99.90;;;;;;4991473;28;20183;-73
2022/12/19 02:23:08;;;;;;;27.13;14.45;;;1.80;99.90;;;;;;4951504;28;20559;-73
2022/12/19 02:26:08;;;;;;;26.77;14.90;;;1.90;99.90;;;;;;4991266;28;20244;-73
2022/12/19 02:28:53;;;;;;;26.70;15.00;;;1.90;99.90;;;;;;4975012;28;20579;-73
2022/12/19 02:31:30;;;;;;;24.90;14.45;;;1.80;99.90;;;;;;4958507;28;20232;-73
2022/12/19 02:34:11;;;;;;;22.70;14.73;;;1.80;99.90;;;;;;4974800;28;20170;-73
2022/12/19 02:37:23;;;;;;;31.77;15.27;;;1.90;99.90;;;;;;4975290;28;20170;-73
2022/12/19 02:39:54;;;;;;;29.02;14.15;;;1.90;99.90;;;;;;4956099;28;20673;-73
2022/12/19 02:42:30;;;;;;;26.45;15.65;;;1.90;99.90;;;;;;4958934;28;20949;-73
2022/12/19 02:45:03;;;;;;;27.63;15.65;;;1.80;99.90;;;;;;4974755;28;20180;-74
2022/12/19 02:47:31;;;;;;;28.67;15.60;;;1.90;99.90;;;;;;4958927;28;20272;-73
2022/12/19 02:50:03;;;;;;;27.40;15.30;;;1.90;99.90;;;;;;4958874;28;20211;-73
2022/12/19 02:52:29;;;;;;;24.27;14.60;;;1.90;99.90;;;;;;4974514;28;20694;-73
2022/12/19 02:55:08;;;;;;;27.57;15.07;;;1.90;99.90;;;;;;4974732;28;20213;-73
2022/12/19 02:57:59;;;;;;;29.63;14.23;;;1.90;99.90;;;;;;4974928;28;20865;-73
2022/12/19 03:00:28;;;;;;;24.67;13.90;;;1.90;99.90;;;;;;4974447;28;20320;-73
2022/12/19 03:03:18;;;;;;;26.65;15.23;;;1.90;99.90;;;;;;4979640;28;20227;-73
2022/12/19 03:06:17;;;;;;;24.73;14.50;;;2.00;99.90;;;;;;4958017;28;20190;-73
2022/12/19 03:09:01;;;;;;;27.20;13.75;;;2.00;99.90;;;;;;4958383;28;20201;-73
2022/12/19 03:11:35;;;;;;;24.02;14.10;;;2.00;99.90;;;;;;4974543;28;20181;-73
2022/12/19 03:14:32;;;;;;;25.52;15.23;;;2.00;99.90;;;;;;4962892;28;20254;-73
2022/12/19 03:17:04;;;;;;;21.58;13.55;;;2.00;99.90;;;;;;4948892;28;20224;-73
2022/12/19 03:19:37;;;;;;;25.60;14.82;;;2.00;99.90;;;;;;4974500;28;20186;-73
2022/12/19 03:22:07;;;;;;;25.73;15.68;;;2.00;99.90;;;;;;4958453;28;20209;-73
2022/12/19 03:24:35;;;;;;;24.67;14.20;;;2.00;99.90;;;;;;4982563;28;20230;-73
2022/12/19 03:27:10;;;;;;;25.98;14.70;;;2.00;99.90;;;;;;4983091;28;20173;-74
2022/12/19 03:29:49;;;;;;;26.02;15.18;;;2.00;99.90;;;;;;4975162;28;20712;-76
2022/12/19 03:32:17;;;;;;;28.30;14.77;;;2.00;99.90;;;;;;4975905;28;20204;-73
2022/12/19 03:34:58;;;;;;;26.23;15.15;;;2.10;99.90;;;;;;4960235;28;20184;-73
2022/12/19 03:37:34;;;;;;;25.77;14.70;;;2.00;99.90;;;;;;4976150;28;20665;-73
2022/12/19 03:40:09;;;;;;;30.23;14.50;;;2.10;99.90;;;;;;4993428;28;20257;-74
2022/12/19 03:45:55;;;;;;;30.45;16.20;;;2.10;99.90;;;;;;4976078;28;20574;-73
2022/12/19 03:48:50;;;;;;;31.25;15.55;;;2.10;99.90;;;;;;4967644;28;20232;-73
2022/12/19 03:51:25;;;;;;;28.00;14.98;;;2.10;99.90;;;;;;4975681;28;20665;-73
2022/12/19 03:54:00;;;;;;;25.48;14.32;;;2.10;99.90;;;;;;4975833;28;20169;-73
2022/12/19 03:56:38;;;;;;;24.27;14.95;;;2.10;99.90;;;;;;4962723;28;20646;-73
2022/12/19 03:59:10;;;;;;;25.20;15.07;;;2.10;99.90;;;;;;4996752;28;20535;-73
2022/12/19 04:01:40;;;;;;;24.42;13.70;;;2.10;99.90;;;;;;4963140;28;20208;-73
2022/12/19 04:04:07;;;;;;;26.33;15.05;;;2.10;99.90;;;;;;4996628;28;20246;-73
2022/12/19 04:06:34;;;;;;;24.80;14.55;;;2.10;99.90;;;;;;4979305;28;20169;-73
2022/12/19 04:09:01;;;;;;;21.75;13.52;;;2.10;99.90;;;;;;4979164;28;20198;-73
2022/12/19 04:11:37;;;;;;;30.23;15.05;;;2.10;99.90;;;;;;4963341;28;20176;-73
2022/12/19 04:14:08;;;;;;;29.95;15.55;;;2.10;99.90;;;;;;4963061;28;20681;-73
2022/12/19 04:16:43;;;;;;;25.55;14.55;;;2.10;99.90;;;;;;4996460;28;20268;-73
2022/12/19 04:19:34;;;;;;;23.30;14.18;;;2.10;99.90;;;;;;4963148;28;20192;-73
2022/12/19 04:22:18;;;;;;;25.25;14.35;;;2.20;99.90;;;;;;4962918;28;20213;-73
2022/12/19 04:24:46;;;;;;;21.88;14.65;;;2.10;99.90;;;;;;4979122;28;20580;-73
2022/12/19 04:27:13;;;;;;;25.95;15.38;;;2.20;99.90;;;;;;4979101;28;20194;-73
2022/12/19 04:29:43;;;;;;;26.63;15.20;;;2.20;99.90;;;;;;4994816;28;20721;-73
2022/12/19 04:32:11;;;;;;;27.40;15.30;;;2.20;99.90;;;;;;4979086;28;20714;-74
2022/12/19 04:34:38;;;;;;;27.55;15.60;;;2.20;99.90;;;;;;4978852;28;20162;-73
2022/12/19 04:37:04;;;;;;;25.48;14.60;;;2.20;99.90;;;;;;4962816;28;20170;-73
2022/12/19 04:39:33;;;;;;;25.50;13.90;;;2.20;99.90;;;;;;4963497;28;20749;-73
2022/12/19 04:42:04;;;;;;;26.40;15.63;;;2.20;99.90;;;;;;4962670;28;20245;-73
2022/12/19 04:44:34;;;;;;;27.75;16.00;;;2.20;99.90;;;;;;4962677;28;20189;-73
2022/12/19 04:47:03;;;;;;;24.88;13.80;;;2.20;99.90;;;;;;4995760;28;20178;-73
2022/12/19 04:49:29;;;;;;;25.35;13.85;;;2.20;99.90;;;;;;4962498;28;20214;-73
2022/12/19 04:51:57;;;;;;;29.33;14.63;;;2.20;99.90;;;;;;4962350;28;20204;-73
2022/12/19 04:54:27;;;;;;;22.85;13.27;;;2.30;99.90;;;;;;4962435;28;20476;-73
2022/12/19 04:56:55;;;;;;;28.02;13.63;;;2.30;99.90;;;;;;4996042;28;20261;-73
2022/12/19 04:59:26;;;;;;;24.73;14.43;;;2.30;99.90;;;;;;4978385;28;20596;-73
2022/12/19 05:01:54;;;;;;;26.70;15.45;;;2.30;99.90;;;;;;4962141;28;20228;-73
2022/12/19 05:04:20;;;;;;;25.75;15.68;;;2.30;99.90;;;;;;4995629;28;20644;-73
2022/12/19 05:06:48;;;;;;;26.10;15.02;;;2.30;99.90;;;;;;4994647;28;20703;-73
2022/12/19 05:09:16;;;;;;;26.33;15.18;;;2.30;99.90;;;;;;4978213;28;20297;-73
2022/12/19 05:11:42;;;;;;;23.70;14.25;;;2.30;99.90;;;;;;4995416;28;20193;-73
2022/12/19 05:14:11;;;;;;;27.27;15.10;;;2.30;99.90;;;;;;4962022;28;20183;-73
2022/12/19 05:16:39;;;;;;;23.80;14.27;;;2.30;99.90;;;;;;4995630;28;20424;-75
2022/12/19 05:19:05;;;;;;;25.13;15.47;;;2.30;99.90;;;;;;4995522;28;20647;-73
2022/12/19 05:21:31;;;;;;;29.98;15.00;;;2.30;99.90;;;;;;4995239;28;20401;-73
2022/12/19 05:24:00;;;;;;;27.75;15.80;;;2.30;99.90;;;;;;4978516;28;20704;-72
2022/12/19 05:26:28;;;;;;;23.90;14.93;;;2.30;99.90;;;;;;4977722;28;20178;-73
2022/12/19 05:28:54;;;;;;;24.05;14.60;;;2.30;99.90;;;;;;4995064;28;20182;-73
2022/12/19 05:31:23;;;;;;;24.87;14.40;;;2.30;99.90;;;;;;4994993;28;20243;-75
2022/12/19 05:33:49;;;;;;;25.10;14.98;;;2.30;99.90;;;;;;4961161;28;20425;-72
2022/12/19 05:36:16;;;;;;;21.30;13.90;;;2.30;99.90;;;;;;4960733;28;20651;-73
2022/12/19 05:38:42;;;;;;;25.08;14.70;;;2.30;99.90;;;;;;4993454;28;20245;-73
2022/12/19 05:41:16;;;;;;;24.13;14.43;;;2.40;99.90;;;;;;4975284;28;20214;-74
2022/12/19 05:43:52;;;;;;;22.17;14.10;;;2.40;99.90;;;;;;4976116;28;20240;-73
2022/12/19 05:46:22;;;;;;;23.90;13.75;;;2.40;99.90;;;;;;4959702;28;20190;-72
2022/12/19 05:48:48;;;;;;;27.10;15.02;;;2.40;99.90;;;;;;4959801;28;20206;-73
2022/12/19 05:51:16;;;;;;;24.45;13.75;;;2.40;99.90;;;;;;4975827;28;20190;-73
2022/12/19 05:53:45;;;;;;;29.10;15.30;;;2.40;99.90;;;;;;4975814;28;20675;-73
2022/12/19 05:56:19;;;;;;;24.20;14.65;;;2.40;99.90;;;;;;4975286;28;20182;-74
2022/12/19 05:58:48;;;;;;;26.85;14.40;;;2.40;99.90;;;;;;4975775;28;20186;-73
2022/12/19 06:01:14;;;;;;;24.90;14.68;;;2.40;99.90;;;;;;4959820;28;20197;-73
2022/12/19 06:03:45;;;;;;;23.60;14.48;;;2.40;99.90;;;;;;4992243;28;20643;-73
2022/12/19 06:06:19;;;;;;;21.70;13.90;;;2.40;99.90;;;;;;4959397;28;20178;-73
2022/12/19 06:08:52;;;;;;;24.17;14.40;;;2.40;99.90;;;;;;4991583;28;20198;-73
2022/12/19 06:11:18;;;;;;;21.80;14.02;;;2.40;99.90;;;;;;4992378;28;20531;-73
2022/12/19 06:13:47;;;;;;;22.05;14.43;;;2.50;99.90;;;;;;4975247;28;20205;-73
2022/12/19 06:16:17;;;;;;;24.73;14.02;;;2.50;99.90;;;;;;4975788;28;20273;-73
2022/12/19 06:18:46;;;;;;;24.35;14.48;;;2.50;99.90;;;;;;4974927;28;20179;-73
2022/12/19 06:21:18;;;;;;;23.88;15.60;;;2.50;99.90;;;;;;4975276;28;20599;-74
2022/12/19 06:23:47;;;;;;;23.90;14.80;;;2.50;99.90;;;;;;4992642;28;20172;-73
2022/12/19 06:26:16;;;;;;;22.30;13.63;;;2.50;99.90;;;;;;4992729;28;20233;-74
2022/12/19 06:28:45;;;;;;;26.40;14.65;;;2.50;99.90;;;;;;4940269;28;20236;-73
2022/12/19 06:31:14;;;;;;;22.77;13.00;;;2.50;99.90;;;;;;4974764;28;20193;-73
2022/12/19 06:33:43;;;;;;;23.35;14.70;;;2.50;99.90;;;;;;4992555;28;20182;-74
2022/12/19 06:36:17;;;;;;;26.08;14.27;;;2.50;99.90;;;;;;4974794;28;20185;-74
2022/12/19 06:38:43;;;;;;;22.00;13.20;;;2.50;99.90;;;;;;4992382;28;20191;-73
2022/12/19 06:44:00;;;;;;;23.63;13.80;;;2.60;99.90;;;;;;4970017;28;20188;-74
2022/12/19 06:46:26;;;;;;;23.70;14.93;;;2.60;99.90;;;;;;4992659;28;20178;-74
2022/12/19 06:48:53;;;;;;;20.98;13.45;;;2.60;99.90;;;;;;4958662;28;20206;-73
2022/12/19 06:51:23;;;;;;;23.58;14.18;;;2.60;99.90;;;;;;4992049;28;20178;-74
2022/12/19 06:53:49;;;;;;;22.25;13.40;;;2.60;99.90;;;;;;4959139;28;20651;-73
2022/12/19 06:56:18;;;;;;;22.88;13.50;;;2.60;99.90;;;;;;4958606;28;20186;-73
2022/12/19 06:58:46;;;;;;;22.38;13.73;;;2.60;99.90;;;;;;4957014;28;20363;-73
2022/12/19 07:01:27;;;;;;;21.42;13.63;;;2.60;99.90;;;;;;4956567;28;20677;-72
2022/12/19 07:04:00;;;;;;;21.90;14.07;;;2.60;99.90;;;;;;4975086;28;20189;-73
2022/12/19 07:06:26;;;;;;;22.00;14.27;;;2.70;99.90;;;;;;4992049;28;20177;-72
2022/12/19 07:08:52;;;;;;;21.42;13.10;;;2.70;99.90;;;;;;4974431;28;20197;-73
2022/12/19 07:11:18;;;;;;;21.87;12.70;;;2.70;99.90;;;;;;4991838;28;20561;-72
2022/12/19 07:13:44;;;;;;;20.05;12.20;;;2.70;99.90;;;;;;4958542;28;20445;-71
2022/12/19 07:16:13;;;;;;;20.00;12.07;;;2.70;99.90;;;;;;4974928;28;20550;-72
2022/12/19 07:18:42;;;;;;;19.65;12.30;;;2.70;99.90;;;;;;4973011;28;20189;-72
2022/12/19 07:21:12;;;;;;;21.80;12.88;;;2.70;99.90;;;;;;4990332;28;20182;-73
2022/12/19 07:23:41;;;;;;;20.73;12.30;;;2.70;99.90;;;;;;4990646;28;20601;-73
2022/12/19 07:26:09;;;;;;;21.58;13.13;;;2.70;99.90;;;;;;4972509;28;20264;-72
2022/12/19 07:28:43;;;;;;;20.38;13.05;;;2.70;99.90;;;;;;4980345;28;20702;-74
2022/12/19 07:31:13;;;;;;;19.10;12.55;;;2.70;99.90;;;;;;4976737;28;20194;-73
2022/12/19 07:33:41;;;;;;;20.88;12.35;;;2.70;99.90;;;;;;4977467;28;20181;-73
2022/12/19 07:36:12;;;;;;;23.25;12.32;;;2.70;99.90;;;;;;4994529;28;20570;-73
2022/12/19 07:38:41;;;;;;;17.85;12.80;;;2.80;99.90;;;;;;4978998;28;20170;-73
2022/12/19 07:41:07;;;;;;;19.75;12.68;;;2.70;99.90;;;;;;4978127;28;20201;-72
2022/12/19 07:43:33;;;;;;;20.15;12.25;;;2.80;99.90;;;;;;4994922;28;20660;-74
2022/12/19 07:46:05;;;;;;;23.45;13.15;;;2.80;99.90;;;;;;4975926;28;20214;-74
2022/12/19 07:48:38;;;;;;;22.98;13.25;;;2.80;99.90;;;;;;4977038;28;20658;-73
2022/12/19 07:51:06;;;;;;;19.70;12.80;;;2.80;99.90;;;;;;4949744;28;20185;-73
2022/12/19 07:53:32;;;;;;;18.88;11.85;;;2.80;99.90;;;;;;4972366;28;20707;-73
2022/12/19 07:56:01;;;;;;;18.83;12.30;;;2.80;99.90;;;;;;4993613;28;20174;-73
2022/12/19 07:58:31;;;;;;;21.92;11.95;;;2.80;99.90;;;;;;4991624;28;20480;-73
2022/12/19 08:01:01;;;;;;;18.50;11.50;;;2.90;99.90;;;;;;4944960;28;20185;-73
2022/12/19 08:03:31;;;;;;;19.00;11.52;;;2.90;99.90;;;;;;4976740;28;20449;-73
2022/12/19 08:06:07;;;;;;;18.38;11.85;;;2.90;99.90;;;;;;4973293;28;20204;-73
2022/12/19 08:08:36;;;;;;;20.55;11.90;;;2.90;99.90;;;;;;4960015;28;20265;-73
2022/12/19 08:11:12;;;;;;;20.48;12.90;;;2.90;99.90;;;;;;4962115;28;20201;-73
2022/12/19 08:13:40;;;;;;;21.02;11.93;;;2.90;99.90;;;;;;5013743;28;20204;-73
2022/12/19 08:16:09;;;;;;;18.80;11.02;;;2.90;99.90;;;;;;4978673;28;20189;-73
2022/12/19 08:18:37;;;;;;;20.05;11.13;;;2.90;99.90;;;;;;4976820;28;20210;-72
2022/12/19 08:21:04;;;;;;;15.40;11.25;;;2.90;99.90;;;;;;4976799;28;20253;-73
2022/12/19 08:23:31;;;;;;;19.83;12.30;;;2.90;99.90;;;;;;4993033;28;20735;-73
2022/12/19 08:26:07;;;;;;;21.10;11.60;;;2.90;99.90;;;;;;4993182;28;20217;-74
2022/12/19 08:28:36;;;;;;;19.27;11.45;;;3.00;99.90;;;;;;4994235;28;20181;-73
2022/12/19 08:31:08;;;;;;;17.90;11.43;;;3.00;99.90;;;;;;4975628;28;20598;-73
2022/12/19 08:33:48;;;;;;;18.80;11.30;;;3.00;99.90;;;;;;4993874;28;20229;-73
2022/12/19 08:36:17;;;;;;;18.23;10.95;;;3.00;99.90;;;;;;4995506;28;20210;-74
2022/12/19 08:38:48;;;;;;;20.58;11.85;;;3.10;99.90;;;;;;4994194;28;20170;-74
2022/12/19 08:41:16;;;;;;;19.92;12.57;;;3.10;99.90;;;;;;4976714;28;20197;-73
2022/12/19 08:43:42;;;;;;;21.23;12.27;;;3.10;99.90;;;;;;4960226;28;20178;-74
2022/12/19 08:46:09;;;;;;;18.30;11.35;;;3.10;99.90;;;;;;4976022;28;20170;-73
2022/12/19 08:48:36;;;;;;;16.80;11.07;;;3.10;99.90;;;;;;4976034;28;20185;-73
2022/12/19 08:51:07;;;;;;;22.80;11.73;;;3.10;99.90;;;;;;4987047;28;20210;-73
2022/12/19 08:53:40;;;;;;;19.95;12.05;;;3.10;99.90;;;;;;4993892;28;20194;-72
2022/12/19 08:56:20;;;;;;;22.00;13.00;;;3.20;99.90;;;;;;4990337;28;20190;-75
2022/12/19 08:58:50;;;;;;;22.13;13.23;;;3.30;99.90;;;;;;4959965;28;20205;-73
2022/12/19 09:01:22;;;;;;;20.83;12.60;;;3.40;99.90;;;;;;4992401;28;20188;-74
2022/12/19 09:03:49;;;;;;;24.98;13.20;;;3.40;99.90;;;;;;4993815;28;20532;-73
2022/12/19 09:06:17;;;;;;;20.38;12.93;;;3.50;99.90;;;;;;4975333;28;20201;-73
2022/12/19 09:08:43;;;;;;;20.77;11.70;;;3.40;99.90;;;;;;4993569;28;20281;-73
2022/12/19 09:11:14;;;;;;;21.73;14.18;;;3.40;99.90;;;;;;4959879;28;20257;-73
2022/12/19 09:13:42;;;;;;;19.45;11.70;;;3.40;99.90;;;;;;4974974;28;20190;-75
2022/12/19 09:16:17;;;;;;;22.00;13.40;;;3.40;99.90;;;;;;4993298;28;20191;-73
2022/12/19 09:18:48;;;;;;;16.48;10.75;;;3.40;99.90;;;;;;4994320;28;20253;-73
2022/12/19 09:21:17;;;;;;;18.48;12.93;;;3.40;99.90;;;;;;4976340;28;20178;-73
2022/12/19 09:23:48;;;;;;;23.80;12.75;;;3.40;99.90;;;;;;4976801;28;20570;-74
2022/12/19 09:26:17;;;;;;;20.88;12.05;;;3.40;99.90;;;;;;4994109;28;20734;-73
2022/12/19 09:28:46;;;;;;;18.67;12.07;;;3.40;99.90;;;;;;4975379;28;20198;-73
2022/12/19 09:31:22;;;;;;;18.30;11.50;;;3.40;99.90;;;;;;4976619;28;20210;-76
2022/12/19 09:33:48;;;;;;;17.42;11.52;;;3.40;99.90;;;;;;4977268;28;20172;-76
2022/12/19 09:36:17;;;;;;;19.15;11.32;;;3.40;99.90;;;;;;4975534;28;20182;-76
2022/12/19 09:38:43;;;;;;;16.80;11.65;;;3.40;99.90;;;;;;4974632;28;20583;-75
2022/12/19 09:41:25;;;;;;;19.00;10.93;;;3.50;99.90;;;;;;4943177;28;20190;-75
2022/12/19 09:44:15;;;;;;;22.60;12.05;;;3.40;99.90;;;;;;4959489;28;20580;-75
2022/12/19 09:47:18;;;;;;;19.25;11.82;;;3.40;99.90;;;;;;4956150;28;20723;-75
2022/12/19 09:49:47;;;;;;;17.48;11.60;;;3.50;99.90;;;;;;4990393;28;20779;-75
2022/12/19 09:52:15;;;;;;;16.35;11.75;;;3.50;99.90;;;;;;4973716;28;20209;-75
2022/12/19 09:54:53;;;;;;;17.45;11.05;;;3.50;99.90;;;;;;4960263;28;20182;-75
2022/12/19 09:57:39;;;;;;;17.67;10.55;;;3.50;99.90;;;;;;4976102;28;20523;-76
2022/12/19 10:00:20;;;;;;;19.50;11.75;;;3.50;99.90;;;;;;4974710;28;20194;-75
2022/12/19 10:03:06;;;;;;;18.17;10.98;;;3.50;99.90;;;;;;4993070;28;20229;-75
2022/12/19 10:05:46;;;;;;;18.67;11.77;;;3.50;99.90;;;;;;4992105;28;20197;-76
2022/12/19 10:08:39;;;;;;;19.02;11.32;;;3.50;99.90;;;;;;4950277;28;20195;-75
2022/12/19 10:11:14;;;;;;;18.67;11.05;;;3.50;99.90;;;;;;4954547;28;20218;-75
2022/12/19 10:13:54;;;;;;;18.42;11.18;;;3.50;99.90;;;;;;4972580;28;20670;-75
2022/12/19 10:16:40;;;;;;;18.23;10.82;;;3.50;99.90;;;;;;4991562;28;20212;-75
2022/12/19 10:19:13;;;;;;;17.90;11.27;;;3.50;99.90;;;;;;4993120;28;20212;-75
2022/12/19 10:22:03;;;;;;;17.45;11.38;;;3.60;99.90;;;;;;4975232;28;20261;-75
2022/12/19 10:25:11;;;;;;;19.13;11.65;;;3.60;99.90;;;;;;4984874;28;20179;-76
2022/12/19 10:28:11;;;;;;;16.10;10.35;;;3.60;99.90;;;;;;4885963;29;20251;-75
2022/12/19 10:30:46;;;;;;;17.00;10.48;;;3.70;99.90;;;;;;4920115;28;20223;-75
2022/12/19 10:33:28;;;;;;;20.23;11.45;;;3.70;99.90;;;;;;4956406;28;20205;-74
2022/12/19 10:36:05;;;;;;;17.15;11.63;;;3.60;99.90;;;;;;4972466;28;20217;-75
2022/12/19 10:38:53;;;;;;;19.70;11.50;;;3.60;99.90;;;;;;4968496;28;20317;-75
2022/12/19 10:41:48;;;;;;;17.40;11.05;;;3.70;99.90;;;;;;4975025;28;20182;-76
2022/12/19 10:44:20;;;;;;;17.95;10.27;;;3.70;99.90;;;;;;4958786;28;20197;-75
2022/12/19 10:46:49;;;;;;;21.25;10.35;;;3.70;99.90;;;;;;4959411;28;20190;-75
2022/12/19 10:49:20;;;;;;;17.38;10.65;;;3.70;99.90;;;;;;4974968;28;20252;-75
2022/12/19 10:51:59;;;;;;;21.35;11.82;;;3.70;99.90;;;;;;4975215;28;20213;-75
2022/12/19 10:54:35;;;;;;;16.67;11.32;;;3.80;99.90;;;;;;4974949;28;20197;-75
2022/12/19 10:57:20;;;;;;;17.88;11.70;;;3.80;99.90;;;;;;4958929;28;20217;-76
2022/12/19 11:00:13;;;;;;;17.02;10.73;;;3.80;99.90;;;;;;4958499;28;20198;-75
2022/12/19 11:03:03;;;;;;;18.30;11.45;;;3.80;99.90;;;;;;4971608;28;20246;-75
2022/12/19 11:05:43;;;;;;;19.40;10.00;;;3.80;99.90;;;;;;4967023;28;20198;-75
2022/12/19 11:08:17;;;;;;;14.73;10.63;;;3.80;99.90;;;;;;4994934;28;20186;-75
2022/12/19 11:10:55;;;;;;;16.02;10.68;;;3.80;99.90;;;;;;4979084;28;20557;-75
2022/12/19 11:13:28;;;;;;;21.70;10.82;;;3.80;99.90;;;;;;4962576;28;20237;-75
2022/12/19 11:15:57;;;;;;;17.77;10.00;;;3.90;99.90;;;;;;4991442;28;20218;-75
2022/12/19 11:18:37;;;;;;;16.63;10.40;;;3.90;99.90;;;;;;4994802;28;20159;-75
2022/12/19 11:21:05;;;;;;;18.60;11.60;;;3.90;99.90;;;;;;4985361;28;20210;-75
2022/12/19 11:23:43;;;;;;;14.68;10.68;;;3.90;99.90;;;;;;4977178;28;20189;-75
2022/12/19 11:26:31;;;;;;;17.85;11.30;;;3.90;99.90;;;;;;4962322;28;20197;-74
2022/12/19 11:29:22;;;;;;;17.52;10.35;;;3.90;99.90;;;;;;4973230;28;20632;-73
2022/12/19 11:31:59;;;;;;;16.92;10.07;;;3.90;99.90;;;;;;4934452;28;20222;-73
2022/12/19 11:34:34;;;;;;;15.77;9.85;;;4.00;99.90;;;;;;4961953;28;20236;-72
2022/12/19 11:37:30;;;;;;;17.05;11.15;;;4.00;99.90;;;;;;4994580;28;20166;-73
2022/12/19 11:40:14;;;;;;;18.58;10.32;;;4.00;99.90;;;;;;4981976;28;20218;-73
2022/12/19 11:43:18;;;;;;;16.90;11.77;;;4.00;99.90;;;;;;4978125;28;20206;-73
2022/12/19 11:45:57;;;;;;;15.15;10.23;;;4.00;99.90;;;;;;4974687;28;20201;-71
2022/12/19 11:48:55;;;;;;;17.05;9.90;;;4.00;99.90;;;;;;4938200;28;20201;-74
2022/12/19 11:51:49;;;;;;;16.45;10.10;;;4.10;99.90;;;;;;4978437;28;20540;-74
2022/12/19 11:54:36;;;;;;;14.40;10.00;;;4.10;99.90;;;;;;4976168;28;20208;-73
2022/12/19 11:57:03;;;;;;;18.20;11.30;;;4.10;99.90;;;;;;4994279;28;20198;-74
2022/12/19 11:59:34;;;;;;;16.05;10.05;;;4.10;99.90;;;;;;4996020;28;20252;-73
2022/12/19 12:02:37;;;;;;;17.95;10.77;;;4.10;99.90;;;;;;4962078;28;20304;-76
2022/12/19 12:05:38;;;;;;;20.05;11.35;;;4.10;99.90;;;;;;4977737;28;20189;-74
2022/12/19 12:08:10;;;;;;;16.02;10.73;;;4.10;99.90;;;;;;4975759;28;20186;-74
2022/12/19 12:10:51;;;;;;;15.65;9.43;;;4.10;99.90;;;;;;4975481;28;20206;-73
2022/12/19 12:13:34;;;;;;;14.55;9.65;;;4.20;99.90;;;;;;4975799;28;20833;-72
2022/12/19 12:16:14;;;;;;;15.30;9.93;;;4.20;99.90;;;;;;4976606;28;20347;-71
2022/12/19 12:19:02;;;;;;;17.45;10.00;;;4.20;99.90;;;;;;4993668;28;20209;-73
2022/12/19 12:21:47;;;;;;;15.45;9.38;;;4.20;99.90;;;;;;4991198;28;20613;-73
2022/12/19 12:24:59;;;;;;;15.98;9.85;;;4.20;99.90;;;;;;4960386;28;20187;-74
2022/12/19 12:28:21;;;;;;;19.15;10.80;;;4.20;99.90;;;;;;4974681;28;20570;-73
2022/12/19 12:31:13;;;;;;;15.75;10.25;;;4.20;99.90;;;;;;4914075;29;20212;-75
2022/12/19 12:34:00;;;;;;;14.85;9.60;;;4.20;99.90;;;;;;4913750;29;20220;-74
2022/12/19 12:36:50;;;;;;;14.85;10.25;;;4.30;99.90;;;;;;4969716;28;20559;-72
2022/12/19 12:39:37;;;;;;;13.95;8.88;;;4.30;99.90;;;;;;4977162;28;20191;-74
2022/12/19 12:42:48;;;;;;;14.55;9.35;;;4.30;99.90;;;;;;4976218;28;20202;-73
2022/12/19 12:45:41;;;;;;;13.88;9.30;;;4.30;99.90;;;;;;4923412;28;20203;-77
2022/12/19 12:48:36;;;;;;;15.45;9.50;;;4.30;99.90;;;;;;4969385;28;20669;-71
2022/12/19 12:51:04;;;;;;;15.00;9.20;;;4.40;99.90;;;;;;4975238;28;20164;-74
2022/12/19 12:53:39;;;;;;;16.05;10.00;;;4.40;99.90;;;;;;4968870;28;20282;-74
2022/12/19 12:56:10;;;;;;;14.75;9.63;;;4.40;99.90;;;;;;4960875;28;20206;-74
2022/12/19 12:59:05;;;;;;;19.35;10.45;;;4.40;99.90;;;;;;4996052;28;20296;-77
2022/12/19 13:01:38;;;;;;;16.20;9.07;;;4.40;99.90;;;;;;4990359;28;20198;-75
2022/12/19 13:04:14;;;;;;;13.52;9.13;;;4.40;99.90;;;;;;4976962;28;20178;-74
2022/12/19 13:06:48;;;;;;;15.82;9.60;;;4.50;99.90;;;;;;4960291;28;20171;-75
2022/12/19 13:09:29;;;;;;;12.00;8.60;;;4.50;99.90;;;;;;4993485;28;20213;-74
2022/12/19 13:12:59;;;;;;;15.20;8.88;;;4.50;99.90;;;;;;4976773;28;20214;-74
2022/12/19 13:15:31;;;;;;;15.50;8.65;;;4.50;99.90;;;;;;4880205;29;20185;-74
2022/12/19 13:18:27;;;;;;;19.45;10.60;;;4.50;99.90;;;;;;4905156;29;20208;-75
2022/12/19 13:20:54;;;;;;;16.63;9.48;;;4.50;99.90;;;;;;4894337;29;20253;-74
2022/12/19 13:23:22;;;;;;;13.75;8.70;;;4.50;99.90;;;;;;4908048;29;20228;-75